Time;durP1;ratioP1;P1;durP2;ratioP2;P2;SDS_P1;SDS_P2;PMS_P1;PMS_P2;Temp;Humidity;BMP_temperature;BMP_pressure;BME280_temperature;BME280_humidity;BME280_pressure;Samples;Min_cycle;Max_cycle;Signal;HPM_P1;HPM_P2
2023/09/08 00:02:14;;;;;;;21.05;16.00;;;;;;;;;;772809;178;918086;-62
2023/09/08 00:04:40;;;;;;;20.93;15.37;;;;;;;;;;770449;177;911859;-68
2023/09/08 00:07:05;;;;;;;17.53;14.03;;;;;;;;;;779893;180;916616;-68
2023/09/08 00:09:31;;;;;;;22.63;15.87;;;;;;;;;;774422;180;915693;-64
2023/09/08 00:11:57;;;;;;;19.33;14.30;;;;;;;;;;762296;182;921056;-64
2023/09/08 00:14:23;;;;;;;20.67;14.17;;;;;;;;;;775693;180;918050;-67
2023/09/08 00:16:49;;;;;;;20.47;15.07;;;;;;;;;;760743;183;920711;-63
2023/09/08 00:19:15;;;;;;;18.80;14.57;;;;;;;;;;773006;179;920108;-68
2023/09/08 00:21:43;;;;;;;18.33;14.57;;;;;;;;;;774759;180;920018;-67
2023/09/08 00:24:07;;;;;;;16.87;14.30;;;;;;;;;;769415;181;912609;-62
2023/09/08 00:26:33;;;;;;;19.27;14.27;;;;;;;;;;767029;182;914637;-62
2023/09/08 00:28:58;;;;;;;18.17;13.37;;;;;;;;;;769581;178;917208;-63
2023/09/08 00:31:24;;;;;;;21.90;13.73;;;;;;;;;;776120;182;816683;-63
2023/09/08 00:33:50;;;;;;;21.93;14.23;;;;;;;;;;773920;180;921365;-68
2023/09/08 00:36:16;;;;;;;20.57;13.83;;;;;;;;;;773205;178;911294;-68
2023/09/08 00:38:42;;;;;;;21.80;15.10;;;;;;;;;;773861;178;904847;-68
2023/09/08 00:41:08;;;;;;;20.80;13.83;;;;;;;;;;775206;177;918186;-68
2023/09/08 00:43:34;;;;;;;20.17;14.00;;;;;;;;;;774114;178;913345;-61
2023/09/08 00:46:02;;;;;;;18.30;14.90;;;;;;;;;;779619;180;911567;-68
2023/09/08 00:48:25;;;;;;;23.57;14.90;;;;;;;;;;767829;178;912632;-69
2023/09/08 00:50:51;;;;;;;21.07;15.60;;;;;;;;;;773557;176;921378;-64
2023/09/08 00:53:17;;;;;;;21.83;13.57;;;;;;;;;;771999;178;908287;-63
2023/09/08 00:55:43;;;;;;;17.50;14.30;;;;;;;;;;777219;180;833727;-68
2023/09/08 00:58:09;;;;;;;23.23;14.87;;;;;;;;;;776357;177;916218;-68
2023/09/08 01:00:35;;;;;;;19.27;14.77;;;;;;;;;;763066;180;1222314;-69
2023/09/08 01:03:00;;;;;;;19.27;14.97;;;;;;;;;;777728;180;918434;-63
2023/09/08 01:05:26;;;;;;;19.03;14.17;;;;;;;;;;769929;180;922265;-63
2023/09/08 01:07:52;;;;;;;22.83;16.35;;;;;;;;;;772689;178;918488;-64
2023/09/08 01:10:18;;;;;;;19.10;15.20;;;;;;;;;;777771;180;920362;-70
2023/09/08 01:12:44;;;;;;;23.63;15.73;;;;;;;;;;774380;180;919207;-70
2023/09/08 01:15:10;;;;;;;18.47;14.10;;;;;;;;;;773943;178;918930;-63
2023/09/08 01:17:36;;;;;;;21.85;13.93;;;;;;;;;;774815;180;917377;-68
2023/09/08 01:20:02;;;;;;;15.50;13.00;;;;;;;;;;777658;179;917904;-63
2023/09/08 01:22:33;;;;;;;17.40;15.10;;;;;;;;;;773110;177;919415;-71
2023/09/08 01:25:05;;;;;;;21.53;15.10;;;;;;;;;;775456;179;816415;-64
2023/09/08 01:27:31;;;;;;;17.97;14.70;;;;;;;;;;773073;180;916348;-68
2023/09/08 01:29:57;;;;;;;18.60;14.70;;;;;;;;;;774592;177;917998;-69
2023/09/08 01:32:23;;;;;;;19.03;13.73;;;;;;;;;;775288;180;914554;-63
2023/09/08 01:34:48;;;;;;;19.00;14.00;;;;;;;;;;774385;181;919013;-70
2023/09/08 01:37:14;;;;;;;17.00;12.67;;;;;;;;;;782129;180;919142;-63
2023/09/08 01:39:40;;;;;;;19.03;13.27;;;;;;;;;;777135;179;917518;-64
2023/09/08 01:42:06;;;;;;;17.02;13.82;;;;;;;;;;775877;180;919531;-71
2023/09/08 01:44:32;;;;;;;19.20;12.77;;;;;;;;;;775017;180;915237;-71
2023/09/08 01:46:58;;;;;;;20.90;13.93;;;;;;;;;;773127;180;919158;-64
2023/09/08 01:49:23;;;;;;;18.37;14.37;;;;;;;;;;775138;180;817304;-69
2023/09/08 01:51:50;;;;;;;18.30;12.97;;;;;;;;;;779490;180;816634;-64
2023/09/08 01:54:15;;;;;;;19.57;14.80;;;;;;;;;;771434;177;916377;-70
2023/09/08 01:56:41;;;;;;;18.17;12.90;;;;;;;;;;763399;181;919385;-69
2023/09/08 01:59:07;;;;;;;17.67;13.47;;;;;;;;;;769758;181;918930;-69
2023/09/08 02:01:33;;;;;;;15.93;12.23;;;;;;;;;;768510;182;918231;-69
2023/09/08 02:03:59;;;;;;;17.30;14.13;;;;;;;;;;774311;178;919278;-63
2023/09/08 02:06:24;;;;;;;21.10;14.30;;;;;;;;;;771967;180;919127;-64
2023/09/08 02:08:50;;;;;;;15.63;13.18;;;;;;;;;;776339;180;917014;-64
2023/09/08 02:11:16;;;;;;;19.00;13.20;;;;;;;;;;772529;180;919458;-64
2023/09/08 02:13:42;;;;;;;18.80;13.00;;;;;;;;;;772968;178;920219;-71
2023/09/08 02:16:08;;;;;;;14.90;11.90;;;;;;;;;;779896;180;817806;-69
2023/09/08 02:18:34;;;;;;;19.77;14.37;;;;;;;;;;764704;181;818836;-70
2023/09/08 02:20:59;;;;;;;16.95;14.07;;;;;;;;;;762680;182;920233;-63
2023/09/08 02:23:25;;;;;;;16.53;12.47;;;;;;;;;;776062;181;919492;-69
2023/09/08 02:25:51;;;;;;;13.60;11.47;;;;;;;;;;778701;181;1023014;-68
2023/09/08 02:28:17;;;;;;;16.47;12.10;;;;;;;;;;774051;178;923841;-70
2023/09/08 02:30:43;;;;;;;15.80;12.20;;;;;;;;;;770716;180;915819;-65
2023/09/08 02:33:09;;;;;;;17.67;13.33;;;;;;;;;;776464;178;922894;-64
2023/09/08 02:35:34;;;;;;;14.00;11.70;;;;;;;;;;772397;178;918170;-64
2023/09/08 02:38:00;;;;;;;15.73;13.73;;;;;;;;;;771525;181;918787;-63
2023/09/08 02:40:26;;;;;;;13.50;11.40;;;;;;;;;;769897;181;934139;-63
2023/09/08 02:42:52;;;;;;;14.93;12.07;;;;;;;;;;775949;180;918565;-70
2023/09/08 02:45:18;;;;;;;13.50;11.70;;;;;;;;;;777100;180;920849;-63
2023/09/08 02:47:44;;;;;;;12.40;11.15;;;;;;;;;;777458;177;918977;-70
2023/09/08 02:50:10;;;;;;;16.53;13.03;;;;;;;;;;775500;180;923349;-70
2023/09/08 02:52:35;;;;;;;12.77;11.10;;;;;;;;;;773885;180;919963;-62
2023/09/08 02:55:01;;;;;;;21.77;12.80;;;;;;;;;;774020;177;912063;-69
2023/09/08 02:57:27;;;;;;;18.03;12.50;;;;;;;;;;770890;180;911648;-62
2023/09/08 02:59:56;;;;;;;27.70;13.47;;;;;;;;;;768225;181;919287;-70
2023/09/08 03:02:19;;;;;;;15.33;12.50;;;;;;;;;;756590;183;920307;-64
2023/09/08 03:04:45;;;;;;;19.97;13.83;;;;;;;;;;770177;177;918909;-64
2023/09/08 03:07:11;;;;;;;19.73;14.10;;;;;;;;;;771247;178;922326;-64
2023/09/08 03:09:36;;;;;;;18.03;13.70;;;;;;;;;;773887;180;922522;-69
2023/09/08 03:12:03;;;;;;;18.90;14.27;;;;;;;;;;780019;177;816206;-72
2023/09/08 03:14:28;;;;;;;17.55;13.88;;;;;;;;;;775756;180;816941;-65
2023/09/08 03:16:54;;;;;;;21.43;14.90;;;;;;;;;;775671;177;915783;-71
2023/09/08 03:19:20;;;;;;;19.80;14.60;;;;;;;;;;774545;177;889777;-64
2023/09/08 03:21:46;;;;;;;21.47;13.97;;;;;;;;;;761893;179;920322;-64
2023/09/08 03:24:12;;;;;;;18.83;14.70;;;;;;;;;;768985;179;918931;-64
2023/09/08 03:26:40;;;;;;;20.47;15.00;;;;;;;;;;772311;180;917827;-65
2023/09/08 03:29:03;;;;;;;21.27;15.47;;;;;;;;;;776131;180;919017;-65
2023/09/08 03:31:29;;;;;;;19.20;14.90;;;;;;;;;;771677;180;918836;-71
2023/09/08 03:33:55;;;;;;;21.93;15.13;;;;;;;;;;774019;177;918617;-64
2023/09/08 03:36:21;;;;;;;18.97;13.87;;;;;;;;;;778141;180;928276;-65
2023/09/08 03:38:47;;;;;;;17.83;13.70;;;;;;;;;;770709;181;917934;-64
2023/09/08 03:41:13;;;;;;;22.70;14.30;;;;;;;;;;772990;181;921967;-72
2023/09/08 03:43:39;;;;;;;17.57;13.60;;;;;;;;;;777117;178;924605;-65
2023/09/08 03:46:05;;;;;;;20.70;14.23;;;;;;;;;;763081;180;918037;-65
2023/09/08 03:48:31;;;;;;;17.53;14.70;;;;;;;;;;762096;181;918830;-70
2023/09/08 03:50:57;;;;;;;20.87;13.63;;;;;;;;;;772923;180;921154;-72
2023/09/08 03:53:23;;;;;;;19.30;13.17;;;;;;;;;;780445;177;918623;-72
2023/09/08 03:55:48;;;;;;;15.90;13.93;;;;;;;;;;775226;178;913961;-64
2023/09/08 03:58:15;;;;;;;18.40;14.17;;;;;;;;;;770956;177;947348;-72
2023/09/08 04:00:40;;;;;;;17.37;13.47;;;;;;;;;;777640;178;816928;-65
2023/09/08 04:03:06;;;;;;;20.03;13.23;;;;;;;;;;773161;179;920319;-64
2023/09/08 04:05:32;;;;;;;18.30;13.80;;;;;;;;;;770625;179;917010;-64
2023/09/08 04:07:58;;;;;;;19.30;13.30;;;;;;;;;;779197;180;895513;-64
2023/09/08 04:10:24;;;;;;;21.83;12.93;;;;;;;;;;775888;178;916888;-64
2023/09/08 04:12:50;;;;;;;16.48;13.13;;;;;;;;;;772495;178;909694;-72
2023/09/08 04:15:16;;;;;;;17.80;12.25;;;;;;;;;;775329;181;819711;-71
2023/09/08 04:17:42;;;;;;;17.07;12.13;;;;;;;;;;774324;180;758135;-65
2023/09/08 04:20:08;;;;;;;16.80;14.67;;;;;;;;;;775164;179;919936;-65
2023/09/08 04:22:34;;;;;;;16.97;11.37;;;;;;;;;;777422;179;630142;-72
2023/09/08 04:25:00;;;;;;;16.00;12.63;;;;;;;;;;782923;177;624135;-72
2023/09/08 04:27:25;;;;;;;15.23;12.27;;;;;;;;;;778799;180;658364;-71
2023/09/08 04:29:51;;;;;;;17.00;12.07;;;;;;;;;;777460;180;634709;-72
2023/09/08 04:32:17;;;;;;;15.97;12.37;;;;;;;;;;768490;181;647952;-65
2023/09/08 04:34:43;;;;;;;12.47;10.80;;;;;;;;;;776599;180;617694;-65
2023/09/08 04:37:09;;;;;;;13.20;11.07;;;;;;;;;;772332;178;628280;-71
2023/09/08 04:39:35;;;;;;;16.83;12.07;;;;;;;;;;781723;177;616398;-65
2023/09/08 04:42:00;;;;;;;15.63;12.37;;;;;;;;;;776211;179;655612;-65
2023/09/08 04:44:26;;;;;;;16.30;12.10;;;;;;;;;;770157;177;924681;-65
2023/09/08 04:46:52;;;;;;;20.33;13.63;;;;;;;;;;775541;177;937406;-65
2023/09/08 04:49:18;;;;;;;16.87;12.73;;;;;;;;;;778706;178;882054;-72
2023/09/08 04:51:44;;;;;;;20.80;13.00;;;;;;;;;;759172;184;918935;-72
2023/09/08 04:54:10;;;;;;;16.47;14.10;;;;;;;;;;767035;181;821239;-73
2023/09/08 04:56:36;;;;;;;18.30;14.93;;;;;;;;;;774847;180;618236;-72
2023/09/08 04:59:02;;;;;;;24.43;14.20;;;;;;;;;;779524;178;634110;-65
2023/09/08 05:01:29;;;;;;;20.47;14.93;;;;;;;;;;774547;180;811395;-72
2023/09/08 05:03:53;;;;;;;21.33;15.53;;;;;;;;;;777676;179;915557;-65
2023/09/08 05:06:19;;;;;;;17.90;14.17;;;;;;;;;;775639;177;918625;-73
2023/09/08 05:08:45;;;;;;;23.73;16.33;;;;;;;;;;773684;177;916368;-66
2023/09/08 05:11:11;;;;;;;16.47;13.93;;;;;;;;;;770026;178;919266;-66
2023/09/08 05:13:37;;;;;;;26.57;15.77;;;;;;;;;;761691;183;921241;-65
2023/09/08 05:16:11;;;;;;;17.50;13.60;;;;;;;;;;766428;178;909806;-73
2023/09/08 05:18:28;;;;;;;23.13;15.50;;;;;;;;;;771054;179;819540;-72
2023/09/08 05:20:54;;;;;;;21.33;15.60;;;;;;;;;;780170;180;721441;-75
2023/09/08 05:23:20;;;;;;;18.10;14.33;;;;;;;;;;775163;179;1071967;-65
2023/09/08 05:25:46;;;;;;;21.12;14.60;;;;;;;;;;773659;177;815895;-74
2023/09/08 05:28:12;;;;;;;23.47;15.03;;;;;;;;;;762797;182;1020936;-74
2023/09/08 05:30:38;;;;;;;18.37;14.33;;;;;;;;;;769954;180;911484;-65
2023/09/08 05:33:03;;;;;;;30.57;15.60;;;;;;;;;;767276;181;815810;-65
2023/09/08 05:35:29;;;;;;;17.33;13.77;;;;;;;;;;774266;178;918478;-65
2023/09/08 05:37:55;;;;;;;17.73;14.10;;;;;;;;;;775406;177;925257;-64
2023/09/08 05:40:24;;;;;;;15.80;12.13;;;;;;;;;;773874;179;918445;-72
2023/09/08 05:42:47;;;;;;;24.83;14.03;;;;;;;;;;774171;180;919293;-73
2023/09/08 05:45:13;;;;;;;24.20;13.40;;;;;;;;;;778970;179;923237;-65
2023/09/08 05:47:39;;;;;;;17.87;11.43;;;;;;;;;;771394;178;812822;-64
2023/09/08 05:50:05;;;;;;;15.53;12.00;;;;;;;;;;771455;180;919632;-65
2023/09/08 05:52:33;;;;;;;23.30;11.33;;;;;;;;;;778343;177;817963;-64
2023/09/08 05:54:56;;;;;;;13.93;10.93;;;;;;;;;;774718;180;919139;-72
2023/09/08 05:57:22;;;;;;;14.90;10.70;;;;;;;;;;774444;179;921035;-74
2023/09/08 05:59:48;;;;;;;17.10;11.73;;;;;;;;;;778702;178;918874;-65
2023/09/08 06:02:14;;;;;;;14.63;10.33;;;;;;;;;;770676;178;919070;-67
2023/09/08 06:04:40;;;;;;;15.35;10.15;;;;;;;;;;770867;181;920429;-64
2023/09/08 06:07:06;;;;;;;24.70;11.03;;;;;;;;;;773708;179;922595;-72
2023/09/08 06:09:31;;;;;;;18.60;11.20;;;;;;;;;;775309;180;916765;-65
2023/09/08 06:11:57;;;;;;;12.10;9.03;;;;;;;;;;765776;179;818980;-71
2023/09/08 06:14:23;;;;;;;16.83;10.20;;;;;;;;;;767034;180;920732;-65
2023/09/08 06:16:49;;;;;;;19.70;11.20;;;;;;;;;;783256;180;918739;-64
2023/09/08 06:19:15;;;;;;;12.53;9.50;;;;;;;;;;772019;180;919233;-64
2023/09/08 06:21:41;;;;;;;12.70;9.48;;;;;;;;;;769840;181;919987;-72
2023/09/08 06:24:07;;;;;;;11.27;10.03;;;;;;;;;;778658;177;626157;-64
2023/09/08 06:26:33;;;;;;;14.97;9.90;;;;;;;;;;778574;178;624385;-65
2023/09/08 06:28:59;;;;;;;13.33;10.70;;;;;;;;;;777867;178;632344;-71
2023/09/08 06:31:24;;;;;;;13.20;9.67;;;;;;;;;;778897;180;620090;-65
2023/09/08 06:33:51;;;;;;;16.67;9.80;;;;;;;;;;778856;178;629244;-64
2023/09/08 06:36:16;;;;;;;11.77;9.43;;;;;;;;;;775409;179;639886;-64
2023/09/08 06:38:42;;;;;;;12.00;10.00;;;;;;;;;;778250;180;641811;-65
2023/09/08 06:41:10;;;;;;;11.77;9.40;;;;;;;;;;780834;180;640249;-65
2023/09/08 06:43:35;;;;;;;12.30;10.17;;;;;;;;;;778606;178;633690;-70
2023/09/08 06:46:01;;;;;;;16.80;9.50;;;;;;;;;;763689;184;919230;-70
2023/09/08 06:48:27;;;;;;;13.97;9.27;;;;;;;;;;771045;177;919022;-64
2023/09/08 06:50:54;;;;;;;15.17;9.80;;;;;;;;;;770535;179;918500;-70
2023/09/08 06:53:19;;;;;;;14.18;10.18;;;;;;;;;;770188;180;941289;-71
2023/09/08 06:55:45;;;;;;;14.40;9.83;;;;;;;;;;777226;181;918787;-63
2023/09/08 06:58:11;;;;;;;10.10;8.43;;;;;;;;;;771783;180;919733;-63
2023/09/08 07:00:37;;;;;;;13.37;9.33;;;;;;;;;;767661;180;920365;-64
2023/09/08 07:03:02;;;;;;;17.30;9.57;;;;;;;;;;774301;177;917701;-64
2023/09/08 07:05:28;;;;;;;12.97;9.57;;;;;;;;;;773780;180;915762;-63
2023/09/08 07:07:54;;;;;;;12.20;9.10;;;;;;;;;;766899;180;919111;-69
2023/09/08 07:10:20;;;;;;;10.30;9.20;;;;;;;;;;774719;179;818668;-64
2023/09/08 07:12:47;;;;;;;14.10;10.00;;;;;;;;;;776232;180;937418;-63
2023/09/08 07:15:12;;;;;;;11.50;9.30;;;;;;;;;;773108;180;878533;-65
2023/09/08 07:17:37;;;;;;;16.97;9.43;;;;;;;;;;773638;180;919554;-69
2023/09/08 07:20:04;;;;;;;14.07;9.40;;;;;;;;;;769274;180;774374;-71
2023/09/08 07:22:29;;;;;;;13.43;10.10;;;;;;;;;;769455;181;919020;-70
2023/09/08 07:24:55;;;;;;;13.20;9.83;;;;;;;;;;772719;178;918901;-64
2023/09/08 07:27:21;;;;;;;17.13;10.40;;;;;;;;;;776177;177;915666;-64
2023/09/08 07:29:49;;;;;;;14.57;8.90;;;;;;;;;;773405;180;914234;-63
2023/09/08 07:32:13;;;;;;;11.97;9.07;;;;;;;;;;762854;181;916597;-71
2023/09/08 07:34:39;;;;;;;14.10;9.50;;;;;;;;;;775101;180;917856;-69
2023/09/08 07:37:05;;;;;;;11.37;9.37;;;;;;;;;;776924;181;919883;-70
2023/09/08 07:39:31;;;;;;;12.57;8.33;;;;;;;;;;778604;177;915797;-64
2023/09/08 07:41:56;;;;;;;10.93;9.07;;;;;;;;;;775302;180;920535;-70
2023/09/08 07:44:22;;;;;;;11.00;9.50;;;;;;;;;;776514;177;909791;-66
2023/09/08 07:46:50;;;;;;;18.20;10.00;;;;;;;;;;770880;181;918604;-64
2023/09/08 07:49:14;;;;;;;15.60;10.15;;;;;;;;;;774694;179;913633;-68
2023/09/08 07:51:40;;;;;;;13.87;10.67;;;;;;;;;;771624;179;920054;-63
2023/09/08 07:54:06;;;;;;;11.70;9.60;;;;;;;;;;758186;181;920931;-68
2023/09/08 07:56:32;;;;;;;11.73;9.27;;;;;;;;;;770718;180;931985;-65
2023/09/08 07:58:57;;;;;;;9.47;7.30;;;;;;;;;;769022;180;922952;-63
2023/09/08 08:01:23;;;;;;;12.63;9.07;;;;;;;;;;784177;178;913175;-63
2023/09/08 08:03:49;;;;;;;11.30;9.13;;;;;;;;;;768819;180;799517;-68
2023/09/08 08:06:15;;;;;;;13.83;7.87;;;;;;;;;;767608;179;827348;-63
2023/09/08 08:08:41;;;;;;;19.13;8.27;;;;;;;;;;771974;178;915394;-63
2023/09/08 08:11:11;;;;;;;12.30;8.70;;;;;;;;;;773199;178;913108;-67
2023/09/08 08:13:37;;;;;;;14.10;8.43;;;;;;;;;;768833;180;915988;-63
2023/09/08 08:16:03;;;;;;;12.15;9.18;;;;;;;;;;766156;184;916472;-67
2023/09/08 08:18:29;;;;;;;13.60;8.93;;;;;;;;;;776087;181;921578;-63
2023/09/08 08:20:55;;;;;;;10.70;7.60;;;;;;;;;;773269;181;920155;-67
2023/09/08 08:23:21;;;;;;;9.17;7.67;;;;;;;;;;774049;179;919891;-67
2023/09/08 08:25:47;;;;;;;13.93;7.40;;;;;;;;;;778654;180;916893;-67
2023/09/08 08:28:13;;;;;;;11.13;7.90;;;;;;;;;;770149;180;920812;-68
2023/09/08 08:30:38;;;;;;;8.80;7.40;;;;;;;;;;772932;181;920659;-63
2023/09/08 08:33:04;;;;;;;8.93;7.13;;;;;;;;;;779094;180;919279;-67
2023/09/08 08:35:30;;;;;;;8.37;6.53;;;;;;;;;;760725;181;918499;-63
2023/09/08 08:37:56;;;;;;;12.47;7.00;;;;;;;;;;769845;179;920327;-67
2023/09/08 08:40:26;;;;;;;11.30;7.80;;;;;;;;;;779532;180;919519;-63
2023/09/08 08:42:48;;;;;;;7.70;6.20;;;;;;;;;;775415;180;919263;-62
2023/09/08 08:45:14;;;;;;;9.90;6.90;;;;;;;;;;775043;179;914140;-68
2023/09/08 08:47:39;;;;;;;7.37;5.70;;;;;;;;;;777020;177;921157;-68
2023/09/08 08:50:06;;;;;;;9.00;6.07;;;;;;;;;;779478;180;919545;-61
2023/09/08 08:52:32;;;;;;;9.53;5.57;;;;;;;;;;775693;179;919219;-62
2023/09/08 08:54:57;;;;;;;7.22;6.05;;;;;;;;;;777344;179;917964;-66
2023/09/08 08:57:23;;;;;;;11.60;6.90;;;;;;;;;;778881;180;919436;-67
2023/09/08 08:59:51;;;;;;;7.60;5.70;;;;;;;;;;773085;177;919716;-61
2023/09/08 09:02:16;;;;;;;7.07;5.43;;;;;;;;;;775290;178;919046;-62
2023/09/08 09:04:42;;;;;;;8.53;6.40;;;;;;;;;;774247;181;918339;-62
2023/09/08 09:07:08;;;;;;;6.37;5.37;;;;;;;;;;769973;179;918931;-67
2023/09/08 09:09:33;;;;;;;5.90;4.57;;;;;;;;;;772855;178;914859;-67
2023/09/08 09:11:59;;;;;;;8.43;5.30;;;;;;;;;;772488;180;919300;-62
2023/09/08 09:14:25;;;;;;;8.37;5.13;;;;;;;;;;771096;181;917446;-61
2023/09/08 09:16:51;;;;;;;9.07;5.73;;;;;;;;;;768227;180;886249;-61
2023/09/08 09:19:25;;;;;;;15.33;8.20;;;;;;;;;;774507;179;917028;-68
2023/09/08 09:21:46;;;;;;;14.00;6.10;;;;;;;;;;777900;179;855276;-61
2023/09/08 09:24:15;;;;;;;7.60;5.17;;;;;;;;;;770085;180;918945;-62
2023/09/08 09:26:41;;;;;;;9.53;5.30;;;;;;;;;;773160;180;918644;-67
2023/09/08 09:29:12;;;;;;;6.40;4.80;;;;;;;;;;767972;180;921826;-61
2023/09/08 09:31:38;;;;;;;8.20;5.90;;;;;;;;;;770019;180;821959;-61
2023/09/08 09:34:05;;;;;;;7.37;6.10;;;;;;;;;;772019;181;919080;-66
2023/09/08 09:36:30;;;;;;;9.73;5.40;;;;;;;;;;772501;180;915999;-61
2023/09/08 09:38:58;;;;;;;15.77;6.80;;;;;;;;;;777515;180;819186;-66
2023/09/08 09:41:23;;;;;;;7.03;5.00;;;;;;;;;;762108;180;918963;-65
2023/09/08 09:43:49;;;;;;;7.37;5.17;;;;;;;;;;768456;180;918691;-65
2023/09/08 09:46:15;;;;;;;7.97;5.60;;;;;;;;;;766737;178;918895;-61
2023/09/08 09:48:41;;;;;;;10.23;5.40;;;;;;;;;;774814;179;918362;-66
2023/09/08 09:51:13;;;;;;;8.47;5.30;;;;;;;;;;778771;178;919519;-65
2023/09/08 09:53:38;;;;;;;7.47;5.10;;;;;;;;;;776108;178;808439;-61
2023/09/08 09:56:04;;;;;;;6.17;5.20;;;;;;;;;;780573;180;919381;-65
2023/09/08 09:58:30;;;;;;;8.20;5.40;;;;;;;;;;776893;177;914598;-61
2023/09/08 10:00:56;;;;;;;8.83;5.50;;;;;;;;;;771681;180;919423;-60
2023/09/08 10:03:22;;;;;;;9.20;5.50;;;;;;;;;;779671;180;919877;-60
2023/09/08 10:05:49;;;;;;;6.67;4.77;;;;;;;;;;764034;180;920930;-65
2023/09/08 10:08:14;;;;;;;7.03;5.03;;;;;;;;;;765716;181;919759;-60
2023/09/08 10:10:41;;;;;;;7.10;4.70;;;;;;;;;;767482;180;919874;-60
2023/09/08 10:13:05;;;;;;;6.50;4.70;;;;;;;;;;778909;178;919886;-59
2023/09/08 10:15:31;;;;;;;6.63;5.20;;;;;;;;;;771315;178;920586;-62
2023/09/08 10:17:58;;;;;;;9.40;5.63;;;;;;;;;;773240;180;921392;-60
2023/09/08 10:20:24;;;;;;;8.30;5.67;;;;;;;;;;778552;180;817108;-59
2023/09/08 10:22:50;;;;;;;10.63;5.63;;;;;;;;;;773953;181;921821;-64
2023/09/08 10:25:15;;;;;;;9.50;5.07;;;;;;;;;;770425;180;882440;-65
2023/09/08 10:27:41;;;;;;;11.33;5.10;;;;;;;;;;779471;180;822586;-64
2023/09/08 10:30:08;;;;;;;12.13;5.17;;;;;;;;;;771678;180;919964;-64
2023/09/08 10:32:33;;;;;;;7.90;5.07;;;;;;;;;;771368;180;816925;-65
2023/09/08 10:34:59;;;;;;;5.83;4.73;;;;;;;;;;773783;181;917414;-61
2023/09/08 10:37:25;;;;;;;6.43;5.20;;;;;;;;;;777962;180;918971;-60
2023/09/08 10:39:51;;;;;;;10.87;5.50;;;;;;;;;;773803;177;921101;-60
2023/09/08 10:42:20;;;;;;;8.73;4.93;;;;;;;;;;770252;181;918231;-58
2023/09/08 10:44:54;;;;;;;10.83;5.00;;;;;;;;;;775461;180;917755;-60
2023/09/08 10:47:22;;;;;;;6.70;5.28;;;;;;;;;;777470;181;920206;-65
2023/09/08 10:49:50;;;;;;;8.47;4.90;;;;;;;;;;770101;180;819854;-65
2023/09/08 10:52:16;;;;;;;9.33;6.10;;;;;;;;;;772423;180;919338;-65
2023/09/08 10:54:41;;;;;;;7.60;5.70;;;;;;;;;;780348;181;812685;-65
2023/09/08 10:57:06;;;;;;;8.07;5.17;;;;;;;;;;774290;180;946521;-65
2023/09/08 10:59:35;;;;;;;6.40;5.10;;;;;;;;;;773826;178;903753;-66
2023/09/08 11:02:01;;;;;;;12.60;5.70;;;;;;;;;;770516;180;921630;-65
2023/09/08 11:04:27;;;;;;;8.00;5.73;;;;;;;;;;783004;177;834650;-66
2023/09/08 11:06:53;;;;;;;12.48;6.35;;;;;;;;;;776588;180;919826;-65
2023/09/08 11:09:20;;;;;;;9.20;5.27;;;;;;;;;;772137;180;919422;-64
2023/09/08 11:11:44;;;;;;;7.30;5.30;;;;;;;;;;779777;180;915063;-61
2023/09/08 11:14:10;;;;;;;9.77;6.00;;;;;;;;;;770990;178;930975;-65
2023/09/08 11:16:37;;;;;;;8.73;5.07;;;;;;;;;;758933;181;916069;-65
2023/09/08 11:19:04;;;;;;;8.27;6.10;;;;;;;;;;778887;180;919318;-62
2023/09/08 11:21:34;;;;;;;8.03;5.60;;;;;;;;;;775360;178;920743;-61
2023/09/08 11:23:54;;;;;;;7.27;5.30;;;;;;;;;;770414;179;922518;-61
2023/09/08 11:26:19;;;;;;;10.50;5.37;;;;;;;;;;778960;180;844953;-66
2023/09/08 11:28:47;;;;;;;13.73;6.27;;;;;;;;;;773216;180;904068;-65
2023/09/08 11:31:12;;;;;;;10.23;6.03;;;;;;;;;;771554;181;916859;-62
2023/09/08 11:33:39;;;;;;;8.60;5.50;;;;;;;;;;768481;180;929055;-66
2023/09/08 11:36:03;;;;;;;6.90;5.60;;;;;;;;;;776822;181;917647;-67
2023/09/08 11:38:29;;;;;;;11.30;5.47;;;;;;;;;;771677;180;919029;-61
2023/09/08 11:40:55;;;;;;;8.00;6.30;;;;;;;;;;772821;180;919677;-62
2023/09/08 11:43:20;;;;;;;8.73;6.10;;;;;;;;;;767893;180;919603;-62
2023/09/08 11:45:46;;;;;;;6.10;4.30;;;;;;;;;;769863;181;922172;-66
2023/09/08 11:48:12;;;;;;;12.70;5.60;;;;;;;;;;774705;178;905582;-62
2023/09/08 11:50:38;;;;;;;7.33;5.47;;;;;;;;;;778178;177;915852;-62
2023/09/08 11:53:05;;;;;;;7.00;5.30;;;;;;;;;;769863;178;924700;-60
2023/09/08 11:55:30;;;;;;;6.40;5.70;;;;;;;;;;769043;179;920497;-60
2023/09/08 11:57:57;;;;;;;8.50;5.50;;;;;;;;;;772082;180;914836;-61
2023/09/08 12:00:22;;;;;;;9.47;5.70;;;;;;;;;;772533;179;921231;-66
2023/09/08 12:02:47;;;;;;;6.77;5.07;;;;;;;;;;770629;180;918296;-65
2023/09/08 12:05:13;;;;;;;6.90;5.07;;;;;;;;;;771609;180;919265;-65
2023/09/08 12:07:39;;;;;;;9.17;5.27;;;;;;;;;;776816;180;919649;-65
2023/09/08 12:10:10;;;;;;;6.03;4.90;;;;;;;;;;773172;178;825362;-59
2023/09/08 12:12:36;;;;;;;9.50;5.20;;;;;;;;;;774005;179;925189;-60
2023/09/08 12:15:02;;;;;;;6.20;5.10;;;;;;;;;;777589;180;922476;-65
2023/09/08 12:17:28;;;;;;;7.00;5.03;;;;;;;;;;773149;179;916543;-65
2023/09/08 12:19:53;;;;;;;8.23;5.30;;;;;;;;;;774226;180;918779;-65
2023/09/08 12:22:22;;;;;;;6.63;5.03;;;;;;;;;;774145;180;919646;-60
2023/09/08 12:24:46;;;;;;;7.70;5.53;;;;;;;;;;779047;180;922840;-60
2023/09/08 12:27:11;;;;;;;8.80;5.70;;;;;;;;;;773742;180;921004;-64
2023/09/08 12:29:37;;;;;;;8.30;5.70;;;;;;;;;;772360;180;919573;-65
2023/09/08 12:32:03;;;;;;;6.83;5.60;;;;;;;;;;779389;178;920211;-60
2023/09/08 12:34:29;;;;;;;7.50;5.37;;;;;;;;;;773196;177;934133;-60
2023/09/08 12:36:55;;;;;;;6.40;5.37;;;;;;;;;;771238;180;922189;-59
2023/09/08 12:39:21;;;;;;;15.27;6.43;;;;;;;;;;780502;180;622395;-65
2023/09/08 12:41:47;;;;;;;9.07;5.80;;;;;;;;;;768547;180;630292;-65
2023/09/08 12:44:13;;;;;;;7.07;5.83;;;;;;;;;;767067;181;931412;-60
2023/09/08 12:46:39;;;;;;;6.70;6.00;;;;;;;;;;772470;178;915938;-59
2023/09/08 12:49:05;;;;;;;7.57;6.07;;;;;;;;;;775493;179;919223;-59
2023/09/08 12:51:30;;;;;;;6.70;5.77;;;;;;;;;;772181;180;824523;-58
2023/09/08 12:53:56;;;;;;;7.00;5.23;;;;;;;;;;772822;180;922790;-59
2023/09/08 12:56:22;;;;;;;7.03;5.70;;;;;;;;;;774358;180;918642;-60
2023/09/08 12:58:48;;;;;;;7.87;5.00;;;;;;;;;;768603;178;917361;-60
2023/09/08 13:01:14;;;;;;;7.93;5.17;;;;;;;;;;771745;180;914522;-60
2023/09/08 13:03:40;;;;;;;7.00;5.53;;;;;;;;;;779269;180;919312;-58
2023/09/08 13:06:06;;;;;;;6.67;5.23;;;;;;;;;;771772;180;919186;-60
2023/09/08 13:08:31;;;;;;;7.80;6.00;;;;;;;;;;771382;178;922064;-58
2023/09/08 13:10:57;;;;;;;7.23;5.13;;;;;;;;;;776660;180;919558;-59
2023/09/08 13:13:23;;;;;;;6.97;5.63;;;;;;;;;;767134;181;919073;-59
2023/09/08 13:15:49;;;;;;;8.63;6.00;;;;;;;;;;773761;180;843244;-59
2023/09/08 13:18:15;;;;;;;5.50;4.90;;;;;;;;;;765568;180;916405;-60
2023/09/08 13:20:41;;;;;;;11.43;6.27;;;;;;;;;;767868;180;817365;-60
2023/09/08 13:23:07;;;;;;;7.43;5.33;;;;;;;;;;772636;180;919439;-59
2023/09/08 13:25:32;;;;;;;9.13;6.03;;;;;;;;;;773263;180;920335;-60
2023/09/08 13:27:58;;;;;;;9.30;5.60;;;;;;;;;;778895;180;817372;-60
2023/09/08 13:30:26;;;;;;;7.47;5.27;;;;;;;;;;773951;179;916813;-59
2023/09/08 13:32:50;;;;;;;7.70;6.13;;;;;;;;;;772627;180;920493;-59
2023/09/08 13:35:16;;;;;;;10.00;5.10;;;;;;;;;;777364;180;816650;-59
2023/09/08 13:37:42;;;;;;;6.30;5.23;;;;;;;;;;775129;180;811248;-59
2023/09/08 13:40:08;;;;;;;6.73;5.17;;;;;;;;;;772685;178;918991;-59
2023/09/08 13:42:33;;;;;;;7.60;5.40;;;;;;;;;;774774;180;721914;-60
2023/09/08 13:44:59;;;;;;;8.30;5.60;;;;;;;;;;778353;180;915611;-59
2023/09/08 13:47:25;;;;;;;7.23;5.77;;;;;;;;;;775849;179;819251;-59
2023/09/08 13:49:51;;;;;;;9.60;5.80;;;;;;;;;;777009;180;627155;-60
2023/09/08 13:52:17;;;;;;;8.23;6.33;;;;;;;;;;779158;180;618972;-59
2023/09/08 13:54:43;;;;;;;7.23;5.40;;;;;;;;;;777397;177;624988;-60
2023/09/08 13:57:08;;;;;;;9.60;5.50;;;;;;;;;;776617;179;618046;-60
2023/09/08 13:59:34;;;;;;;6.90;6.00;;;;;;;;;;778036;180;817436;-59
2023/09/08 14:02:03;;;;;;;8.83;5.80;;;;;;;;;;772085;177;902765;-60
2023/09/08 14:04:26;;;;;;;7.40;6.17;;;;;;;;;;771701;180;816938;-60
2023/09/08 14:06:52;;;;;;;7.70;5.53;;;;;;;;;;776609;180;813796;-61
2023/09/08 14:09:18;;;;;;;7.63;5.50;;;;;;;;;;769472;180;917272;-60